Map

Track Data

SID SEASON NUMBER BASIN SUBBASIN NAME ISO_TIME NATURE LAT LON WMO_WIND WMO_PRES WMO_AGENCY TRACK_TYPE DIST2LAND LANDFALL IFLAG USA_AGENCY USA_ATCF_ID USA_LAT USA_LON USA_RECORD USA_STATUS USA_WIND USA_PRES USA_SSHS USA_R34_NE USA_R34_SE USA_R34_SW USA_R34_NW USA_R50_NE USA_R50_SE USA_R50_SW USA_R50_NW USA_R64_NE USA_R64_SE USA_R64_SW USA_R64_NW USA_POCI USA_ROCI USA_RMW USA_EYE TOKYO_LAT TOKYO_LON TOKYO_GRADE TOKYO_WIND TOKYO_PRES TOKYO_R50_DIR TOKYO_R50_LONG TOKYO_R50_SHORT TOKYO_R30_DIR TOKYO_R30_LONG TOKYO_R30_SHORT TOKYO_LAND CMA_LAT CMA_LON CMA_CAT CMA_WIND CMA_PRES HKO_LAT HKO_LON HKO_CAT HKO_WIND HKO_PRES NEWDELHI_LAT NEWDELHI_LON NEWDELHI_GRADE NEWDELHI_WIND NEWDELHI_PRES NEWDELHI_CI NEWDELHI_DP NEWDELHI_POCI REUNION_LAT REUNION_LON REUNION_TYPE REUNION_WIND REUNION_PRES REUNION_TNUM REUNION_CI REUNION_RMW REUNION_R34_NE REUNION_R34_SE REUNION_R34_SW REUNION_R34_NW REUNION_R50_NE REUNION_R50_SE REUNION_R50_SW REUNION_R50_NW REUNION_R64_NE REUNION_R64_SE REUNION_R64_SW REUNION_R64_NW BOM_LAT BOM_LON BOM_TYPE BOM_WIND BOM_PRES BOM_TNUM BOM_CI BOM_RMW BOM_R34_NE BOM_R34_SE BOM_R34_SW BOM_R34_NW BOM_R50_NE BOM_R50_SE BOM_R50_SW BOM_R50_NW BOM_R64_NE BOM_R64_SE BOM_R64_SW BOM_R64_NW BOM_ROCI BOM_POCI BOM_EYE BOM_POS_METHOD BOM_PRES_METHOD NADI_LAT NADI_LON NADI_CAT NADI_WIND NADI_PRES WELLINGTON_LAT WELLINGTON_LON WELLINGTON_WIND WELLINGTON_PRES DS824_LAT DS824_LON DS824_STAGE DS824_WIND DS824_PRES TD9636_LAT TD9636_LON TD9636_STAGE TD9636_WIND TD9636_PRES TD9635_LAT TD9635_LON TD9635_WIND TD9635_PRES TD9635_ROCI NEUMANN_LAT NEUMANN_LON NEUMANN_CLASS NEUMANN_WIND NEUMANN_PRES MLC_LAT MLC_LON MLC_CLASS MLC_WIND MLC_PRES USA_GUST BOM_GUST BOM_GUST_PER REUNION_GUST REUNION_GUST_PER USA_SEAHGT USA_SEARAD_NE USA_SEARAD_SE USA_SEARAD_SW USA_SEARAD_NW STORM_SPEED STORM_DIR
2003198N31306 2003 47 NA NA DANNY 2003-07-16 12:00:00 TS 30.8000 -54.1000 25 1017 hurdat_atl main 1714 1663 O_____________ hurdat_atl AL052003 30.8000 -54.1000 TD 25 1017 -1 1019 90 40 11 330
2003198N31306 2003 47 NA NA DANNY 2003-07-16 15:00:00 TS 31.2627 -54.4068 main 1652 1601 P_____________ AL052003 31.2627 -54.4068 TD 27 1016 -1 1019 90 40 10 330
2003198N31306 2003 47 NA NA DANNY 2003-07-16 18:00:00 TS 31.7000 -54.7000 30 1015 hurdat_atl main 1601 1549 O_____________ hurdat_atl AL052003 31.7000 -54.7000 TD 30 1015 -1 1019 90 40 10 330
2003198N31306 2003 47 NA NA DANNY 2003-07-16 21:00:00 TS 32.0999 -54.9653 main 1549 1501 P_____________ AL052003 32.0999 -54.9653 TD 32 1014 -1 1019 90 35 9 332
2003198N31306 2003 47 NA NA DANNY 2003-07-17 00:00:00 TS 32.5000 -55.2000 35 1013 hurdat_atl main 1501 1453 O_____________ hurdat_atl AL052003 32.5000 -55.2000 TS 35 1013 0 60 60 30 60 1020 90 30 9 337
2003198N31306 2003 47 NA NA DANNY 2003-07-17 03:00:00 TS 32.9347 -55.3783 main 1453 1394 P_____________ AL052003 32.9347 -55.3783 TS 40 1012 0 60 60 30 60 1020 105 30 10 340
2003198N31306 2003 47 NA NA DANNY 2003-07-17 06:00:00 TS 33.4000 -55.6000 45 1011 hurdat_atl main 1394 1330 O_____________ hurdat_atl AL052003 33.4000 -55.6000 TS 45 1011 0 60 60 30 60 1020 120 30 11 331
2003198N31306 2003 47 NA NA DANNY 2003-07-17 09:00:00 TS 33.9004 -56.0140 main 1330 1266 P_____________ AL052003 33.9004 -56.0140 TS 47 1010 0 60 60 30 60 1020 120 30 12 326
2003198N31306 2003 47 NA NA DANNY 2003-07-17 12:00:00 TS 34.4000 -56.4000 50 1009 hurdat_atl main 1266 1218 O_____________ hurdat_atl AL052003 34.4000 -56.4000 TS 50 1009 0 60 60 30 60 1020 120 30 11 334
2003198N31306 2003 47 NA NA DANNY 2003-07-17 15:00:00 TS 34.8573 -56.5754 main 1207 1165 P_____________ AL052003 34.8573 -56.5754 TS 52 1008 0 60 60 45 60 1020 120 25 9 350
2003198N31306 2003 47 NA NA DANNY 2003-07-17 18:00:00 TS 35.3000 -56.6000 55 1008 hurdat_atl main 1165 1122 O_____________ hurdat_atl AL052003 35.3000 -56.6000 TS 55 1008 0 60 60 60 60 1020 120 20 9 0
2003198N31306 2003 47 NA NA DANNY 2003-07-17 21:00:00 TS 35.7500 -56.5451 main 1125 1075 P_____________ AL052003 35.7500 -56.5451 TS 55 1007 0 60 60 60 60 1020 130 20 9 10
2003198N31306 2003 47 NA NA DANNY 2003-07-18 00:00:00 TS 36.2000 -56.4000 55 1007 hurdat_atl main 1075 1037 O_____________ hurdat_atl AL052003 36.2000 -56.4000 TS 55 1007 0 60 60 60 60 1020 140 20 9 14
2003198N31306 2003 47 NA NA DANNY 2003-07-18 03:00:00 TS 36.6421 -56.2664 main 1037 996 P_____________ AL052003 36.6421 -56.2664 TS 55 1006 0 67 67 67 67 1020 140 22 10 20
2003198N31306 2003 47 NA NA DANNY 2003-07-18 06:00:00 TS 37.1000 -56.0000 55 1006 hurdat_atl main 996 960 O_____________ hurdat_atl AL052003 37.1000 -56.0000 TS 55 1006 0 75 75 75 75 1020 140 25 11 32
2003198N31306 2003 47 NA NA DANNY 2003-07-18 09:00:00 TS 37.5848 -55.5320 main 964 941 P_____________ AL052003 37.5848 -55.5320 TS 57 1004 0 75 75 75 75 1020 140 25 13 41
2003198N31306 2003 47 NA NA DANNY 2003-07-18 12:00:00 TS 38.1000 -54.9000 60 1003 hurdat_atl main 941 890 O_____________ hurdat_atl AL052003 38.1000 -54.9000 TS 60 1003 0 75 75 75 75 1020 140 25 15 44
2003198N31306 2003 47 NA NA DANNY 2003-07-18 15:00:00 TS 38.6572 -54.1949 main 879 822 P_____________ AL052003 38.6572 -54.1949 TS 62 1002 0 75 75 75 75 1020 140 25 16 47
2003198N31306 2003 47 NA NA DANNY 2003-07-18 18:00:00 TS 39.2000 -53.4000 65 1002 hurdat_atl main 822 779 O_____________ hurdat_atl AL052003 39.2000 -53.4000 HU 65 1002 1 75 75 75 75 1020 140 25 16 52
2003198N31306 2003 47 NA NA DANNY 2003-07-18 21:00:00 TS 39.6572 -52.5634 main 768 732 P_____________ AL052003 39.6572 -52.5634 HU 65 1001 1 75 75 75 62 1020 140 25 16 55
2003198N31306 2003 47 NA NA DANNY 2003-07-19 00:00:00 TS 40.1000 -51.7000 65 1001 hurdat_atl main 732 692 O_____________ hurdat_atl AL052003 40.1000 -51.7000 HU 65 1001 1 75 75 75 50 1021 140 25 16 54
2003198N31306 2003 47 NA NA DANNY 2003-07-19 03:00:00 TS 40.5910 -50.8856 main 692 659 P_____________ AL052003 40.5910 -50.8856 HU 65 1000 1 75 75 75 50 1021 140 25 16 52
2003198N31306 2003 47 NA NA DANNY 2003-07-19 06:00:00 TS 41.1000 -50.0000 65 1000 hurdat_atl main 662 646 O_____________ hurdat_atl AL052003 41.1000 -50.0000 HU 65 1000 1 75 75 75 50 1021 140 25 18 55
2003198N31306 2003 47 NA NA DANNY 2003-07-19 09:00:00 TS 41.6303 -48.9235 main 652 642 P_____________ AL052003 41.6303 -48.9235 HU 65 1000 1 75 75 75 50 1021 140 25 19 59
2003198N31306 2003 47 NA NA DANNY 2003-07-19 12:00:00 TS 42.1000 -47.8000 65 1001 hurdat_atl main 657 657 O_____________ hurdat_atl AL052003 42.1000 -47.8000 HU 65 1001 1 75 75 75 50 1021 140 25 18 62
2003198N31306 2003 47 NA NA DANNY 2003-07-19 15:00:00 TS 42.4740 -46.7696 main 679 679 P_____________ AL052003 42.4740 -46.7696 HU 62 1002 0 75 75 75 37 1021 140 25 16 68
2003198N31306 2003 47 NA NA DANNY 2003-07-19 18:00:00 TS 42.7000 -45.8000 60 1003 hurdat_atl main 726 726 O_____________ hurdat_atl AL052003 42.7000 -45.8000 TS 60 1003 0 75 75 75 25 1021 140 25 14 78
2003198N31306 2003 47 NA NA DANNY 2003-07-19 21:00:00 TS 42.7592 -44.8685 main 775 775 P_____________ AL052003 42.7592 -44.8685 TS 57 1004 0 62 75 75 37 1021 140 25 13 90
2003198N31306 2003 47 NA NA DANNY 2003-07-20 00:00:00 TS 42.7000 -44.0000 55 1005 hurdat_atl main 841 841 O_____________ hurdat_atl AL052003 42.7000 -44.0000 TS 55 1005 0 50 75 75 50 1021 140 25 12 95
2003198N31306 2003 47 NA NA DANNY 2003-07-20 03:00:00 TS 42.6439 -43.1934 main 900 900 P_____________ AL052003 42.6439 -43.1934 TS 50 1006 0 45 75 75 45 1021 145 25 12 100
2003198N31306 2003 47 NA NA DANNY 2003-07-20 06:00:00 TS 42.5000 -42.4000 45 1007 hurdat_atl main 961 961 O_____________ hurdat_atl AL052003 42.5000 -42.4000 TS 45 1007 0 40 75 75 40 1021 150 25 13 108
2003198N31306 2003 47 NA NA DANNY 2003-07-20 09:00:00 TS 42.2598 -41.5429 main 1034 1034 P_____________ AL052003 42.2598 -41.5429 TS 42 1007 0 32 87 50 32 1021 150 25 14 115
2003198N31306 2003 47 NA NA DANNY 2003-07-20 12:00:00 TS 41.9000 -40.7000 40 1008 hurdat_atl main 1114 1114 O_____________ hurdat_atl AL052003 41.9000 -40.7000 TS 40 1008 0 25 100 25 25 1021 150 25 15 124
2003198N31306 2003 47 NA NA DANNY 2003-07-20 15:00:00 TS 41.4370 -39.9202 main 1200 1200 P_____________ AL052003 41.4370 -39.9202 TS 35 1008 0 12 50 12 12 1021 150 32 15 132
2003198N31306 2003 47 NA NA DANNY 2003-07-20 18:00:00 TS 40.9000 -39.2000 30 1009 hurdat_atl main 1280 1280 O_____________ hurdat_atl AL052003 40.9000 -39.2000 TD 30 1009 -1 1021 150 40 15 136
2003198N31306 2003 47 NA NA DANNY 2003-07-20 21:00:00 TS 40.3496 -38.5207 main 1367 1367 P_____________ AL052003 40.3496 -38.5207 TD 30 1009 -1 15 138
2003198N31306 2003 47 NA NA DANNY 2003-07-21 00:00:00 TS 39.8000 -37.9000 30 1009 hurdat_atl main 1441 1441 O_____________ hurdat_atl AL052003 39.8000 -37.9000 TD 30 1009 -1 14 138
2003198N31306 2003 47 NA NA DANNY 2003-07-21 03:00:00 TS 39.2850 -37.2903 main 1515 1515 P_____________ AL052003 39.2850 -37.2903 TD 30 1009 -1 13 140
2003198N31306 2003 47 NA NA DANNY 2003-07-21 06:00:00 DS 38.8000 -36.8000 30 1010 hurdat_atl main 1584 1584 O_____________ hurdat_atl AL052003 38.8000 -36.8000 LO 30 1010 -3 11 147
2003198N31306 2003 47 NA NA DANNY 2003-07-21 09:00:00 DS 38.3346 -36.4986 main 1640 1640 P_____________ AL052003 38.3346 -36.4986 LO 27 1010 -3 10 157
2003198N31306 2003 47 NA NA DANNY 2003-07-21 12:00:00 DS 37.9000 -36.3000 25 1011 hurdat_atl main 1682 1682 O_____________ hurdat_atl AL052003 37.9000 -36.3000 LO 25 1011 -3 9 158
2003198N31306 2003 47 NA NA DANNY 2003-07-21 15:00:00 DS 37.4925 -36.0701 main 1725 1725 P_____________ AL052003 37.4925 -36.0701 LO 25 1012 -3 9 158
2003198N31306 2003 47 NA NA DANNY 2003-07-21 18:00:00 DS 37.1000 -35.9000 25 1013 hurdat_atl main 1768 1768 O_____________ hurdat_atl AL052003 37.1000 -35.9000 LO 25 1013 -3 8 164
2003198N31306 2003 47 NA NA DANNY 2003-07-21 21:00:00 DS 36.6849 -35.7899 main 1805 1805 P_____________ AL052003 36.6849 -35.7899 LO 25 1014 -3 8 174
2003198N31306 2003 47 NA NA DANNY 2003-07-22 00:00:00 DS 36.3000 -35.8000 25 1015 hurdat_atl main 1836 1836 O_____________ hurdat_atl AL052003 36.3000 -35.8000 LO 25 1015 -3 1021 150 40 7 190
2003198N31306 2003 47 NA NA DANNY 2003-07-22 03:00:00 DS 35.9700 -35.9553 main 1847 1847 P_____________ AL052003 35.9700 -35.9553 LO 25 1016 -3 1021 150 40 7 208
2003198N31306 2003 47 NA NA DANNY 2003-07-22 06:00:00 DS 35.7000 -36.2000 25 1017 hurdat_atl main 1859 1859 O_____________ hurdat_atl AL052003 35.7000 -36.2000 LO 25 1017 -3 1021 150 40 6 218
2003198N31306 2003 47 NA NA DANNY 2003-07-22 09:00:00 DS 35.4700 -36.4425 main 1862 1856 P_____________ AL052003 35.4700 -36.4425 LO 25 1017 -3 1021 150 40 6 225
2003198N31306 2003 47 NA NA DANNY 2003-07-22 12:00:00 DS 35.3000 -36.7000 25 1018 hurdat_atl main 1860 1854 O_____________ hurdat_atl AL052003 35.3000 -36.7000 LO 25 1018 -3 1021 150 40 5 234
2003198N31306 2003 47 NA NA DANNY 2003-07-22 15:00:00 DS 35.1774 -36.9424 main 1856 1847 P_____________ AL052003 35.1774 -36.9424 LO 25 1018 -3 5 244
2003198N31306 2003 47 NA NA DANNY 2003-07-22 18:00:00 DS 35.1000 -37.2000 25 1019 hurdat_atl main 1847 1835 O_____________ hurdat_atl AL052003 35.1000 -37.2000 LO 25 1019 -3 5 253
2003198N31306 2003 47 NA NA DANNY 2003-07-22 21:00:00 DS 35.0424 -37.4774 main 1837 1820 P_____________ AL052003 35.0424 -37.4774 LO 22 1019 -3 5 258
2003198N31306 2003 47 NA NA DANNY 2003-07-23 00:00:00 DS 35.0000 -37.8000 20 1020 hurdat_atl main 1820 1805 O_____________ hurdat_atl AL052003 35.0000 -37.8000 LO 20 1020 -3 6 257
2003198N31306 2003 47 NA NA DANNY 2003-07-23 03:00:00 DS 34.8978 -38.2155 main 1805 1782 P_____________ AL052003 34.8978 -38.2155 LO 20 1020 -3 7 261
2003198N31306 2003 47 NA NA DANNY 2003-07-23 06:00:00 DS 34.9000 -38.6000 20 1020 hurdat_atl main 1782 1753 O_____________ hurdat_atl AL052003 34.9000 -38.6000 LO 20 1020 -3 1024 180 40 5 299
2003198N31306 2003 47 NA NA DANNY 2003-07-23 09:00:00 DS 35.1544 -38.7852 main 1745 1707 P_____________ AL052003 35.1544 -38.7852 LO 20 1020 -3 7 331
2003198N31306 2003 47 NA NA DANNY 2003-07-23 12:00:00 DS 35.5000 -39.0000 20 1020 hurdat_atl main 1707 1653 O_____________ hurdat_atl AL052003 35.5000 -39.0000 LO 20 1020 -3 9 318
2003198N31306 2003 47 NA NA DANNY 2003-07-23 15:00:00 DS 35.7956 -39.4916 main 1653 1607 P_____________ AL052003 35.7956 -39.4916 LO 20 1020 -3 10 302
2003198N31306 2003 47 NA NA DANNY 2003-07-23 18:00:00 DS 36.0000 -40.0000 20 1020 hurdat_atl main 1607 1590 O_____________ hurdat_atl AL052003 36.0000 -40.0000 LO 20 1020 -3 7 286
2003198N31306 2003 47 NA NA DANNY 2003-07-23 21:00:00 DS 35.9923 -40.3257 main 1590 1579 P_____________ AL052003 35.9923 -40.3257 LO 20 1020 -3 4 270
2003198N31306 2003 47 NA NA DANNY 2003-07-24 00:00:00 DS 36.0000 -40.5000 20 1021 hurdat_atl main 1579 1548 O_____________ hurdat_atl AL052003 36.0000 -40.5000 LO 20 1021 -3 4 328
2003198N31306 2003 47 NA NA DANNY 2003-07-24 03:00:00 DS 36.3073 -40.5751 main 1548 1527 P_____________ AL052003 36.3073 -40.5751 LO 20 1021 -3 6 1
2003198N31306 2003 47 NA NA DANNY 2003-07-24 06:00:00 DS 36.6000 -40.5000 20 1021 hurdat_atl main 1527 1527 O_____________ hurdat_atl AL052003 36.6000 -40.5000 LO 20 1021 -3 4 38
2003198N31306 2003 47 NA NA DANNY 2003-07-24 09:00:00 DS 36.6026 -40.2873 main 1538 1538 P_____________ AL052003 36.6026 -40.2873 LO 20 1021 -3 4 104
2003198N31306 2003 47 NA NA DANNY 2003-07-24 12:00:00 DS 36.5000 -40.0000 20 1021 hurdat_atl main 1564 1564 O_____________ hurdat_atl AL052003 36.5000 -40.0000 LO 20 1021 -3 5 111
2003198N31306 2003 47 NA NA DANNY 2003-07-24 15:00:00 DS 36.4349 -39.7574 main 1584 1584 P_____________ AL052003 36.4349 -39.7574 LO 20 1021 -3 4 104
2003198N31306 2003 47 NA NA DANNY 2003-07-24 18:00:00 DS 36.4000 -39.5000 20 1021 hurdat_atl main 1601 1601 O_____________ hurdat_atl AL052003 36.4000 -39.5000 LO 20 1021 -3 5 87
2003198N31306 2003 47 NA NA DANNY 2003-07-24 21:00:00 DS 36.4577 -39.1403 main 1617 1617 P_____________ AL052003 36.4577 -39.1403 LO 20 1021 -3 5 78
2003198N31306 2003 47 NA NA DANNY 2003-07-25 00:00:00 DS 36.5000 -38.9000 20 1022 hurdat_atl main 1628 1622 O_____________ hurdat_atl AL052003 36.5000 -38.9000 LO 20 1022 -3 1 107
2003198N31306 2003 47 NA NA DANNY 2003-07-25 03:00:00 DS 36.4300 -39.0202 main 1631 1625 P_____________ AL052003 36.4300 -39.0202 LO 20 1022 -3 3 230
2003198N31306 2003 47 NA NA DANNY 2003-07-25 06:00:00 DS 36.3000 -39.2000 20 1022 hurdat_atl main 1627 1627 O_____________ hurdat_atl AL052003 36.3000 -39.2000 LO 20 1022 -3 3 196
2003198N31306 2003 47 NA NA DANNY 2003-07-25 09:00:00 DS 36.1725 -39.1223 main 1642 1642 P_____________ AL052003 36.1725 -39.1223 LO 20 1022 -3 3 152
2003198N31306 2003 47 NA NA DANNY 2003-07-25 12:00:00 DS 36.0000 -39.0000 20 1022 hurdat_atl main 1664 1664 O_____________ hurdat_atl AL052003 36.0000 -39.0000 LO 20 1022 -3 4 159
2003198N31306 2003 47 NA NA DANNY 2003-07-25 15:00:00 DS 35.8024 -38.9470 main 1687 1687 P_____________ AL052003 35.8024 -38.9470 LO 20 1022 -3 5 178
2003198N31306 2003 47 NA NA DANNY 2003-07-25 18:00:00 DS 35.5000 -39.0000 20 1022 hurdat_atl main 1707 1707 O_____________ hurdat_atl AL052003 35.5000 -39.0000 LO 20 1022 -3 8 195
2003198N31306 2003 47 NA NA DANNY 2003-07-25 21:00:00 DS 35.0151 -39.2132 main 1739 1739 P_____________ AL052003 35.0151 -39.2132 LO 20 1022 -3 11 202
2003198N31306 2003 47 NA NA DANNY 2003-07-26 00:00:00 DS 34.5000 -39.5000 20 1023 hurdat_atl main 1767 1767 O_____________ hurdat_atl AL052003 34.5000 -39.5000 LO 20 1023 -3 10 207
2003198N31306 2003 47 NA NA DANNY 2003-07-26 03:00:00 DS 34.1349 -39.7495 main 1793 1788 P_____________ AL052003 34.1349 -39.7495 LO 20 1023 -3 8 211
2003198N31306 2003 47 NA NA DANNY 2003-07-26 06:00:00 DS 33.8000 -40.0000 20 1023 hurdat_atl main 1805 1805 O_____________ hurdat_atl AL052003 33.8000 -40.0000 LO 20 1023 -3 8 210
2003198N31306 2003 47 NA NA DANNY 2003-07-26 09:00:00 DS 33.4224 -40.2497 main 1832 1827 P_____________ AL052003 33.4224 -40.2497 LO 20 1023 -3 9 208
2003198N31306 2003 47 NA NA DANNY 2003-07-26 12:00:00 DS 33.0000 -40.5000 20 1023 hurdat_atl main 1855 1855 O_____________ hurdat_atl AL052003 33.0000 -40.5000 LO 20 1023 -3 10 203
2003198N31306 2003 47 NA NA DANNY 2003-07-26 15:00:00 DS 32.5146 -40.7117 main 1893 1893 P_____________ AL052003 32.5146 -40.7117 LO 20 1023 -3 11 203
2003198N31306 2003 47 NA NA DANNY 2003-07-26 18:00:00 DS 32.0000 -41.0000 20 1023 hurdat_atl main 1927 1927 O_____________ hurdat_atl AL052003 32.0000 -41.0000 LO 20 1023 -3 13 209
2003198N31306 2003 47 NA NA DANNY 2003-07-26 21:00:00 DS 31.4247 -41.4261 main 1969 1964 P_____________ AL052003 31.4247 -41.4261 LO 20 1023 -3 13 220
2003198N31306 2003 47 NA NA DANNY 2003-07-27 00:00:00 DS 31.0000 -42.0000 20 1024 hurdat_atl main 1983 1965 O_____________ hurdat_atl AL052003 31.0000 -42.0000 LO 20 1024 -3 12 245
2003198N31306 2003 47 NA NA DANNY 2003-07-27 03:00:00 DS 30.9011 -42.7109 main 1965 1924 P_____________ AL052003 30.9011 -42.7109 LO 20 1024 -3 13 270
2003198N31306 2003 47 NA NA DANNY 2003-07-27 06:00:00 DS 31.0000 -43.5000 20 1024 hurdat_atl main 1924 O_____________ hurdat_atl AL052003 31.0000 -43.5000 LO 20 1024 -3 14 278

About IBTrACS Database

This database is a web-friendly format of International Best Track Archive for Climate Stewardship (IBTrACS), a global best track data archive curated by NOAA dating back to 1842.

Updated: 2021-10-27